Time;durP1;ratioP1;P1;durP2;ratioP2;P2;SDS_P1;SDS_P2;PMS_P1;PMS_P2;Temp;Humidity;BMP_temperature;BMP_pressure;BME280_temperature;BME280_humidity;BME280_pressure;Samples;Min_cycle;Max_cycle;Signal;HPM_P1;HPM_P2
2023/01/23 00:01:38;;;;;;;8.45;6.03;;;;;;;15.25;53.56;101157.47;5071444;28;20400;-52
2023/01/23 00:04:06;;;;;;;8.48;5.97;;;;;;;15.21;53.54;101150.56;5072218;28;20048;-55
2023/01/23 00:06:34;;;;;;;8.63;5.90;;;;;;;15.19;53.56;101149.78;5072084;28;20050;-54
2023/01/23 00:09:04;;;;;;;7.88;5.88;;;;;;;15.16;53.54;101141.94;5070856;28;20529;-52
2023/01/23 00:11:32;;;;;;;8.63;6.13;;;;;;;15.14;53.45;101151.91;5072110;28;20123;-52
2023/01/23 00:14:03;;;;;;;9.30;5.93;;;;;;;15.11;53.63;101138.69;5072074;28;20044;-53
2023/01/23 00:16:33;;;;;;;8.65;5.88;;;;;;;15.06;53.48;101139.00;5071918;28;20048;-51
2023/01/23 00:19:01;;;;;;;9.48;5.97;;;;;;;15.03;53.55;101139.16;5071970;28;20106;-55
2023/01/23 00:21:30;;;;;;;8.27;5.63;;;;;;;15.00;53.43;101125.09;5071809;28;20053;-51
2023/01/23 00:24:01;;;;;;;8.65;5.82;;;;;;;14.99;53.73;101132.28;5071983;28;20044;-54
2023/01/23 00:26:32;;;;;;;9.43;6.05;;;;;;;14.94;53.56;101137.06;5071877;28;20055;-55
2023/01/23 00:29:04;;;;;;;8.38;6.20;;;;;;;14.93;53.71;101137.19;5071678;28;20155;-51
2023/01/23 00:31:35;;;;;;;8.68;5.93;;;;;;;14.88;53.73;101135.66;5071924;28;20448;-51
2023/01/23 00:34:12;;;;;;;9.10;6.45;;;;;;;14.87;53.71;101139.31;5071787;28;20056;-53
2023/01/23 00:36:42;;;;;;;9.10;5.85;;;;;;;14.86;53.72;101147.44;5071771;28;20044;-52
2023/01/23 00:39:16;;;;;;;8.55;5.93;;;;;;;14.81;53.73;101150.44;5072054;28;20044;-55
2023/01/23 00:41:46;;;;;;;8.27;6.15;;;;;;;14.78;53.71;101139.03;5071707;28;20066;-54
2023/01/23 00:44:15;;;;;;;10.13;6.28;;;;;;;14.75;53.72;101140.06;5071729;28;20059;-56
2023/01/23 00:46:43;;;;;;;9.32;6.38;;;;;;;14.74;53.58;101142.88;5071587;28;20048;-51
2023/01/23 00:49:13;;;;;;;9.13;5.75;;;;;;;14.70;53.62;101136.84;5071886;28;20052;-51
2023/01/23 00:51:41;;;;;;;7.65;5.35;;;;;;;14.69;53.70;101132.44;5071649;28;20120;-53
2023/01/23 00:54:10;;;;;;;8.02;5.90;;;;;;;14.66;53.74;101143.34;5071599;28;20044;-54
2023/01/23 00:56:39;;;;;;;8.52;5.78;;;;;;;14.64;53.54;101153.31;5071668;28;20048;-53
2023/01/23 00:59:08;;;;;;;8.57;5.60;;;;;;;14.62;53.61;101157.06;5071597;28;20044;-55
2023/01/23 01:01:37;;;;;;;9.38;5.90;;;;;;;14.56;53.73;101144.88;5071516;28;20106;-53
2023/01/23 01:04:05;;;;;;;8.05;5.90;;;;;;;14.57;53.57;101146.59;5071905;28;20051;-53
2023/01/23 01:06:33;;;;;;;7.47;5.22;;;;;;;14.54;53.63;101146.81;5071503;28;20053;-52
2023/01/23 01:09:02;;;;;;;8.65;5.80;;;;;;;14.50;53.71;101138.09;5071526;28;20049;-53
2023/01/23 01:11:30;;;;;;;7.45;5.55;;;;;;;14.50;53.75;101145.28;5071424;28;20105;-55
2023/01/23 01:14:00;;;;;;;8.57;6.03;;;;;;;14.47;53.73;101148.13;5074119;28;20533;-55
2023/01/23 01:16:29;;;;;;;8.95;5.63;;;;;;;14.46;53.73;101143.72;5075328;28;20485;-52
2023/01/23 01:18:57;;;;;;;9.45;5.55;;;;;;;14.44;53.68;101148.31;5075438;28;20044;-52
2023/01/23 01:21:26;;;;;;;7.95;5.65;;;;;;;14.41;53.64;101146.69;5075302;28;20056;-52
2023/01/23 01:23:54;;;;;;;7.45;5.60;;;;;;;14.39;53.55;101137.00;5075262;28;20045;-54
2023/01/23 01:26:28;;;;;;;7.47;5.13;;;;;;;14.38;53.75;101129.88;5075150;28;20053;-54
2023/01/23 01:28:59;;;;;;;8.27;5.60;;;;;;;14.34;53.80;101126.53;5073789;28;20052;-53
2023/01/23 01:31:29;;;;;;;8.48;5.38;;;;;;;14.32;53.70;101121.28;5075061;28;20071;-54
2023/01/23 01:33:57;;;;;;;8.85;5.78;;;;;;;14.29;53.74;101118.78;5075014;28;20130;-54
2023/01/23 01:36:25;;;;;;;7.95;5.60;;;;;;;14.28;53.79;101125.13;5075041;28;20093;-52
2023/01/23 01:38:54;;;;;;;9.13;5.90;;;;;;;14.22;53.77;101114.75;5074941;28;20048;-55
2023/01/23 01:41:22;;;;;;;7.97;5.65;;;;;;;14.23;53.70;101116.47;5074937;28;20048;-53
2023/01/23 01:43:52;;;;;;;8.88;5.65;;;;;;;14.22;53.79;101117.44;5074855;28;20443;-54
2023/01/23 01:46:22;;;;;;;7.70;5.18;;;;;;;14.20;53.77;101114.00;5074784;28;20477;-53
2023/01/23 01:49:01;;;;;;;7.15;5.53;;;;;;;14.17;53.64;101111.47;5074762;28;20048;-53
2023/01/23 01:51:33;;;;;;;8.25;5.35;;;;;;;14.16;53.71;101120.47;5074718;28;20044;-54
2023/01/23 01:54:09;;;;;;;6.95;4.80;;;;;;;14.15;53.57;101129.50;5074685;28;20052;-55
2023/01/23 01:56:43;;;;;;;7.70;5.07;;;;;;;14.12;53.68;101129.69;5074587;28;20493;-54
2023/01/23 01:59:13;;;;;;;8.52;5.80;;;;;;;14.09;53.65;101124.53;5074641;28;20048;-52
2023/01/23 02:01:45;;;;;;;8.10;4.85;;;;;;;14.06;53.84;101130.06;5074366;28;20045;-55
2023/01/23 02:04:15;;;;;;;8.70;5.25;;;;;;;14.03;53.83;101132.94;5074478;28;20374;-55
2023/01/23 02:06:44;;;;;;;7.68;5.28;;;;;;;13.99;53.86;101134.06;5074458;28;20076;-55
2023/01/23 02:09:18;;;;;;;7.82;5.10;;;;;;;13.96;53.97;101128.88;5074477;28;20048;-53
2023/01/23 02:11:47;;;;;;;7.40;4.97;;;;;;;13.93;54.03;101119.22;5074347;28;20101;-52
2023/01/23 02:14:15;;;;;;;7.35;4.85;;;;;;;13.92;53.78;101119.31;5074239;28;20045;-54
2023/01/23 02:16:49;;;;;;;8.05;5.05;;;;;;;13.89;53.97;101131.06;5074243;28;20464;-55
2023/01/23 02:19:36;;;;;;;7.38;4.80;;;;;;;13.87;54.02;101116.88;5074370;28;20040;-54
2023/01/23 02:22:14;;;;;;;7.13;5.07;;;;;;;13.86;54.00;101125.03;5074161;28;20048;-53
2023/01/23 02:24:49;;;;;;;7.43;5.15;;;;;;;13.84;54.08;101105.50;5073275;28;20048;-54
2023/01/23 02:27:18;;;;;;;7.18;4.95;;;;;;;13.83;54.09;101106.44;5073909;28;20567;-53
2023/01/23 02:29:50;;;;;;;8.32;4.95;;;;;;;13.81;54.22;101108.38;5074177;28;20049;-55
2023/01/23 02:32:23;;;;;;;7.20;5.18;;;;;;;13.80;54.07;101117.34;5074050;28;20045;-52
2023/01/23 02:34:53;;;;;;;7.70;5.18;;;;;;;13.77;54.08;101113.03;5073968;28;20127;-54
2023/01/23 02:37:26;;;;;;;7.05;4.90;;;;;;;13.74;54.01;101119.44;5072739;28;20555;-54
2023/01/23 02:39:55;;;;;;;7.45;4.93;;;;;;;13.75;54.10;101113.13;5074137;28;20059;-50
2023/01/23 02:42:25;;;;;;;7.78;4.63;;;;;;;13.73;54.20;101112.38;5074019;28;20135;-55
2023/01/23 02:44:54;;;;;;;7.43;4.82;;;;;;;13.70;54.16;101111.66;5073888;28;20060;-54
2023/01/23 02:47:23;;;;;;;7.63;5.22;;;;;;;13.69;54.08;101107.25;5073922;28;20489;-52
2023/01/23 02:49:51;;;;;;;8.05;4.70;;;;;;;13.67;54.02;101107.34;5073511;28;20505;-53
2023/01/23 02:52:19;;;;;;;6.68;4.63;;;;;;;13.64;54.37;101102.19;5073616;28;20559;-55
2023/01/23 02:54:50;;;;;;;8.02;5.10;;;;;;;13.64;54.20;101101.31;5073613;28;20440;-53
2023/01/23 02:57:21;;;;;;;6.88;4.43;;;;;;;13.61;54.40;101099.69;5073623;28;20045;-53
2023/01/23 03:02:37;;;;;;;7.30;4.47;;;;;;;13.57;54.20;101084.72;5073354;28;20043;-54
2023/01/23 03:05:06;;;;;;;7.10;4.55;;;;;;;13.55;54.12;101085.78;5073298;28;20469;-53
2023/01/23 03:07:34;;;;;;;6.32;4.40;;;;;;;13.53;54.40;101079.66;5073342;28;20443;-53
2023/01/23 03:10:03;;;;;;;7.10;4.70;;;;;;;13.52;54.46;101076.13;5073250;28;20036;-51
2023/01/23 03:12:36;;;;;;;7.05;4.57;;;;;;;13.51;54.25;101069.03;5073171;28;20520;-54
2023/01/23 03:15:07;;;;;;;6.63;4.22;;;;;;;13.50;54.41;101069.97;5073173;28;20056;-51
2023/01/23 03:17:36;;;;;;;6.63;4.40;;;;;;;13.47;54.40;101064.78;5073129;28;20052;-54
2023/01/23 03:20:06;;;;;;;5.80;3.95;;;;;;;13.45;54.23;101066.72;5073049;28;20041;-52
2023/01/23 03:22:35;;;;;;;6.22;4.07;;;;;;;13.39;54.35;101059.88;5072634;28;20517;-50
2023/01/23 03:25:07;;;;;;;6.47;4.22;;;;;;;13.43;54.54;101074.84;5072855;28;20094;-53
2023/01/23 03:27:36;;;;;;;6.60;4.32;;;;;;;13.43;54.35;101076.66;5072606;28;20048;-55
2023/01/23 03:30:12;;;;;;;6.97;4.13;;;;;;;13.42;54.40;101074.94;5072802;28;20044;-54
2023/01/23 03:32:40;;;;;;;6.97;4.40;;;;;;;13.40;54.46;101079.50;5072851;28;20041;-54
2023/01/23 03:35:12;;;;;;;6.18;4.32;;;;;;;13.38;54.42;101081.41;5072702;28;20128;-54
2023/01/23 03:37:41;;;;;;;5.68;4.00;;;;;;;13.39;54.22;101077.78;5072710;28;20044;-54
2023/01/23 03:43:01;;;;;;;6.38;4.22;;;;;;;13.36;54.39;101069.94;5072541;28;20045;-54
2023/01/23 03:45:31;;;;;;;6.35;4.45;;;;;;;13.34;54.36;101067.34;5072563;28;20045;-53
2023/01/23 03:48:00;;;;;;;6.40;4.13;;;;;;;13.33;54.54;101067.44;5072389;28;20512;-52
2023/01/23 03:50:31;;;;;;;5.88;3.97;;;;;;;13.33;54.34;101067.44;5072437;28;20461;-53
2023/01/23 03:53:01;;;;;;;6.97;4.45;;;;;;;13.32;54.50;101065.72;5072401;28;20036;-52
2023/01/23 03:55:29;;;;;;;6.25;4.25;;;;;;;13.28;54.57;101067.69;5070393;28;20055;-55
2023/01/23 03:57:57;;;;;;;6.15;3.75;;;;;;;13.28;54.38;101069.50;5072356;28;20387;-54
2023/01/23 04:00:25;;;;;;;6.18;4.10;;;;;;;13.27;54.50;101065.09;5072268;28;20136;-55
2023/01/23 04:02:55;;;;;;;5.80;3.83;;;;;;;13.23;54.23;101063.56;5072140;28;20047;-53
2023/01/23 04:05:23;;;;;;;6.18;3.78;;;;;;;13.24;54.56;101059.94;5072220;28;20048;-54
2023/01/23 04:07:54;;;;;;;6.57;4.03;;;;;;;13.23;54.57;101063.56;5072133;28;20044;-55
2023/01/23 04:10:23;;;;;;;6.70;3.90;;;;;;;13.22;54.45;101061.81;5072173;28;20041;-52
2023/01/23 04:12:51;;;;;;;5.53;3.55;;;;;;;13.20;54.65;101058.38;5072044;28;21090;-54
2023/01/23 04:15:20;;;;;;;5.45;3.53;;;;;;;13.18;54.53;101064.66;5071972;28;20127;-55
2023/01/23 04:17:48;;;;;;;6.93;3.88;;;;;;;13.17;54.62;101065.59;5072002;28;20097;-56
2023/01/23 04:20:18;;;;;;;5.47;3.53;;;;;;;13.15;54.67;101072.88;5072080;28;20489;-53
2023/01/23 04:22:46;;;;;;;6.13;3.72;;;;;;;13.13;54.64;101074.78;5072033;28;20489;-53
2023/01/23 04:25:14;;;;;;;6.07;3.78;;;;;;;13.13;54.62;101072.09;5071795;28;20128;-55
2023/01/23 04:27:43;;;;;;;5.07;3.47;;;;;;;13.11;54.55;101073.97;5071798;28;20056;-53
2023/01/23 04:30:14;;;;;;;4.80;3.35;;;;;;;13.12;54.67;101075.75;5071742;28;20578;-54
2023/01/23 04:32:43;;;;;;;4.60;3.05;;;;;;;13.10;54.61;101074.94;5071745;28;20139;-53
2023/01/23 04:35:12;;;;;;;5.55;3.63;;;;;;;13.10;54.71;101066.03;5071744;28;20048;-51
2023/01/23 04:37:44;;;;;;;5.50;3.53;;;;;;;13.10;54.75;101068.72;5071684;28;20044;-51
2023/01/23 04:40:13;;;;;;;5.47;3.17;;;;;;;13.08;54.76;101071.50;5071714;28;20072;-54
2023/01/23 04:42:41;;;;;;;5.40;3.33;;;;;;;13.12;55.01;101064.13;5071659;28;20398;-54
2023/01/23 04:45:11;;;;;;;4.95;3.20;;;;;;;13.22;55.25;101067.19;5070434;28;20052;-53
2023/01/23 04:47:42;;;;;;;5.00;3.38;;;;;;;13.32;55.59;101076.44;5071262;28;20064;-53
2023/01/23 04:50:11;;;;;;;4.85;3.15;;;;;;;13.40;55.69;101079.50;5071781;28;20143;-53
2023/01/23 04:52:46;;;;;;;5.40;3.38;;;;;;;13.51;55.61;101077.06;5071685;28;20132;-53
2023/01/23 04:55:14;;;;;;;5.32;3.42;;;;;;;13.60;55.55;101078.31;5071575;28;20101;-54
2023/01/23 04:57:43;;;;;;;5.55;3.30;;;;;;;13.69;55.39;101078.63;5071587;28;20629;-55
2023/01/23 05:00:13;;;;;;;5.90;3.20;;;;;;;13.81;55.27;101071.69;5071566;28;20048;-55
2023/01/23 05:02:45;;;;;;;4.63;3.10;;;;;;;13.93;55.33;101075.44;5071621;28;20546;-53
2023/01/23 05:05:16;;;;;;;5.10;3.17;;;;;;;14.04;55.17;101083.69;5071521;28;20060;-53
2023/01/23 05:07:45;;;;;;;4.47;3.05;;;;;;;14.15;55.08;101086.56;5071433;28;20048;-53
2023/01/23 05:10:15;;;;;;;5.43;3.05;;;;;;;14.24;54.87;101083.31;5070356;28;20048;-52
2023/01/23 05:12:44;;;;;;;4.88;3.22;;;;;;;14.33;54.95;101087.25;5071398;28;20048;-53
2023/01/23 05:15:12;;;;;;;5.30;3.22;;;;;;;14.43;54.81;101092.91;5071348;28;20459;-55
2023/01/23 05:17:41;;;;;;;4.95;3.03;;;;;;;14.51;54.64;101090.63;5071439;28;20119;-53
2023/01/23 05:20:11;;;;;;;4.60;2.85;;;;;;;14.60;54.59;101087.38;5071392;28;20448;-53
2023/01/23 05:22:50;;;;;;;4.78;3.17;;;;;;;14.72;54.55;101100.00;5071368;28;20052;-52
2023/01/23 05:25:25;;;;;;;4.72;3.00;;;;;;;14.83;54.49;101094.78;5071248;28;20045;-55
2023/01/23 05:27:53;;;;;;;5.05;3.05;;;;;;;14.93;54.45;101099.56;5071072;28;20059;-54
2023/01/23 05:30:23;;;;;;;4.05;2.70;;;;;;;15.04;54.34;101103.28;5071047;28;20110;-53
2023/01/23 05:32:51;;;;;;;4.65;2.80;;;;;;;15.14;54.19;101108.91;5071123;28;20135;-54
2023/01/23 05:35:24;;;;;;;5.32;3.38;;;;;;;15.21;54.16;101098.63;5071381;28;20472;-52
2023/01/23 05:37:53;;;;;;;4.90;2.60;;;;;;;15.26;54.08;101094.69;5071200;28;20049;-52
2023/01/23 05:40:23;;;;;;;4.10;2.70;;;;;;;15.32;53.96;101096.94;5071237;28;20041;-52
2023/01/23 05:42:52;;;;;;;5.78;3.00;;;;;;;15.34;53.96;101095.00;5071073;28;20040;-52
2023/01/23 05:45:20;;;;;;;4.50;2.92;;;;;;;15.39;53.96;101087.53;5070999;28;20410;-52
2023/01/23 05:47:48;;;;;;;5.18;2.88;;;;;;;15.40;53.91;101083.00;5070962;28;20474;-52
2023/01/23 05:50:21;;;;;;;4.93;3.05;;;;;;;15.42;54.04;101098.06;5071488;28;20052;-52
2023/01/23 05:52:50;;;;;;;4.97;3.08;;;;;;;15.46;53.91;101104.97;5070976;28;20444;-53
2023/01/23 05:55:18;;;;;;;4.78;2.90;;;;;;;15.44;53.94;101103.31;5071106;28;20082;-51
2023/01/23 05:57:48;;;;;;;6.30;3.25;;;;;;;15.44;53.90;101109.59;5071016;28;20044;-51
2023/01/23 06:00:19;;;;;;;4.93;3.05;;;;;;;15.42;53.83;101111.50;5072599;28;20049;-52
2023/01/23 06:02:47;;;;;;;4.90;2.97;;;;;;;15.40;53.96;101113.44;5074456;28;20460;-52
2023/01/23 06:05:16;;;;;;;4.38;2.78;;;;;;;15.37;53.92;101110.97;5074248;28;20123;-53
2023/01/23 06:07:44;;;;;;;4.63;2.90;;;;;;;15.36;53.81;101117.31;5074314;28;20079;-52
2023/01/23 06:10:13;;;;;;;4.28;2.67;;;;;;;15.33;53.89;101120.16;5074364;28;20041;-54
2023/01/23 06:12:41;;;;;;;4.50;2.85;;;;;;;15.29;53.85;101133.94;5074296;28;20052;-51
2023/01/23 06:15:11;;;;;;;5.40;3.20;;;;;;;15.28;53.89;101133.06;5074314;28;20049;-52
2023/01/23 06:17:39;;;;;;;4.93;2.95;;;;;;;15.24;53.79;101134.22;5074068;28;20049;-55
2023/01/23 06:20:09;;;;;;;6.07;3.00;;;;;;;15.20;53.81;101140.78;5073997;28;20053;-54
2023/01/23 06:22:39;;;;;;;4.38;2.67;;;;;;;15.19;53.93;101147.13;5074191;28;20040;-50
2023/01/23 06:25:08;;;;;;;4.53;2.80;;;;;;;15.15;53.76;101159.00;5073928;28;20102;-51
2023/01/23 06:27:36;;;;;;;4.55;3.08;;;;;;;15.12;53.77;101161.91;5074002;28;20494;-52
2023/01/23 06:30:05;;;;;;;4.97;3.05;;;;;;;15.08;53.91;101163.94;5074059;28;20444;-51
2023/01/23 06:32:44;;;;;;;5.00;3.10;;;;;;;15.05;53.81;101164.09;5073860;28;20485;-52
2023/01/23 06:35:12;;;;;;;4.33;2.60;;;;;;;15.00;53.96;101163.56;5073718;28;20509;-52
2023/01/23 06:37:40;;;;;;;5.13;3.00;;;;;;;14.98;53.93;101170.00;5073931;28;20297;-53
2023/01/23 06:40:12;;;;;;;5.35;3.10;;;;;;;14.95;53.86;101172.88;5073778;28;20397;-52
2023/01/23 06:42:41;;;;;;;5.03;2.85;;;;;;;14.91;53.70;101176.72;5073714;28;20124;-52
2023/01/23 06:45:13;;;;;;;4.90;2.88;;;;;;;14.87;53.85;101181.44;5073582;28;20048;-52
2023/01/23 06:47:43;;;;;;;4.80;3.08;;;;;;;14.82;53.75;101179.03;5073704;28;20402;-52
2023/01/23 06:50:11;;;;;;;4.50;3.00;;;;;;;14.79;53.79;101179.22;5073300;28;20121;-53
2023/01/23 06:52:40;;;;;;;4.55;3.10;;;;;;;14.76;53.84;101179.41;5073229;28;20044;-54
2023/01/23 06:55:10;;;;;;;5.55;2.90;;;;;;;14.72;53.95;101183.25;5073186;28;20048;-54
2023/01/23 06:57:41;;;;;;;5.13;2.85;;;;;;;14.67;53.98;101176.41;5073432;28;20448;-54
2023/01/23 07:00:11;;;;;;;4.47;2.70;;;;;;;14.66;53.82;101166.66;5073312;28;20169;-55
2023/01/23 07:02:39;;;;;;;4.78;2.92;;;;;;;14.62;53.89;101179.41;5073278;28;20127;-53
2023/01/23 07:05:09;;;;;;;4.93;3.08;;;;;;;14.54;53.80;101173.66;5073053;28;20044;-56
2023/01/23 07:07:38;;;;;;;4.40;2.72;;;;;;;14.54;53.91;101179.03;5073376;28;20091;-53
2023/01/23 07:10:07;;;;;;;4.90;2.90;;;;;;;14.51;53.85;101184.59;5073175;28;20115;-55
2023/01/23 07:12:36;;;;;;;5.43;3.20;;;;;;;14.47;53.80;101189.25;5072919;28;20070;-55
2023/01/23 07:15:06;;;;;;;4.97;2.78;;;;;;;14.46;53.90;101192.03;5072559;28;20135;-54
2023/01/23 07:17:34;;;;;;;4.53;2.83;;;;;;;14.43;54.01;101197.56;5071577;28;20056;-51
2023/01/23 07:20:04;;;;;;;5.05;3.15;;;;;;;14.41;53.98;101203.03;5071923;28;20044;-54
2023/01/23 07:22:34;;;;;;;4.03;2.70;;;;;;;14.39;53.88;101204.09;5072330;28;20094;-52
2023/01/23 07:25:02;;;;;;;4.40;2.80;;;;;;;14.36;54.05;101215.00;5072520;28;20128;-54
2023/01/23 07:27:31;;;;;;;4.22;2.90;;;;;;;14.33;54.13;101213.38;5071431;28;20076;-53
2023/01/23 07:30:00;;;;;;;4.90;2.70;;;;;;;14.32;54.11;101220.56;5072418;28;20054;-53
2023/01/23 07:32:28;;;;;;;4.53;2.85;;;;;;;14.30;54.15;101219.81;5072533;28;20048;-53
2023/01/23 07:34:56;;;;;;;4.95;2.80;;;;;;;14.27;54.14;101214.59;5072572;28;20047;-56
2023/01/23 07:37:25;;;;;;;4.95;2.90;;;;;;;14.27;54.35;101219.09;5071478;28;20124;-55
2023/01/23 07:39:54;;;;;;;4.75;2.85;;;;;;;14.27;54.32;101221.78;5072587;28;20552;-56
2023/01/23 07:42:22;;;;;;;4.45;2.53;;;;;;;14.28;54.38;101219.03;5072444;28;20382;-56
2023/01/23 07:44:51;;;;;;;5.43;2.85;;;;;;;14.32;54.52;101215.19;5072339;28;20044;-52
2023/01/23 07:47:19;;;;;;;3.95;2.55;;;;;;;14.39;54.70;101222.91;5072458;28;20049;-52
2023/01/23 07:49:48;;;;;;;4.35;2.72;;;;;;;14.46;54.62;101211.69;5072411;28;20044;-52
2023/01/23 07:52:16;;;;;;;5.07;3.00;;;;;;;14.55;54.61;101216.50;5072503;28;20401;-52
2023/01/23 07:54:44;;;;;;;5.50;2.83;;;;;;;14.66;54.49;101215.84;5072721;28;20079;-57
2023/01/23 07:57:13;;;;;;;3.85;2.33;;;;;;;14.75;54.48;101214.41;5072058;28;20064;-52
2023/01/23 07:59:42;;;;;;;4.75;2.70;;;;;;;14.83;54.23;101218.34;5072246;28;20102;-54
2023/01/23 08:02:10;;;;;;;3.70;2.30;;;;;;;14.95;54.36;101216.69;5072181;28;20044;-54
2023/01/23 08:04:38;;;;;;;4.45;2.65;;;;;;;15.03;54.30;101229.66;5072145;28;20044;-54
2023/01/23 08:07:07;;;;;;;4.28;2.63;;;;;;;15.09;54.30;101218.53;5072003;28;20068;-53
2023/01/23 08:09:35;;;;;;;4.82;2.60;;;;;;;15.14;54.17;101221.78;5070698;28;20123;-53
2023/01/23 08:12:04;;;;;;;4.35;2.78;;;;;;;15.17;54.17;101221.59;5071947;28;20461;-53
2023/01/23 08:14:33;;;;;;;5.03;2.50;;;;;;;15.18;54.31;101220.63;5072087;28;20048;-52
2023/01/23 08:17:01;;;;;;;5.03;2.47;;;;;;;15.20;54.32;101223.22;5071940;28;20379;-54
2023/01/23 08:19:30;;;;;;;4.28;2.65;;;;;;;15.21;54.37;101214.19;5071964;28;20074;-54
2023/01/23 08:21:58;;;;;;;4.70;2.63;;;;;;;15.20;54.63;101213.34;5071616;28;20127;-54
2023/01/23 08:24:26;;;;;;;4.50;2.53;;;;;;;15.21;54.50;101220.44;5071277;28;20045;-54
2023/01/23 08:26:54;;;;;;;3.92;2.65;;;;;;;15.20;54.35;101213.34;5071669;28;20044;-53
2023/01/23 08:29:23;;;;;;;4.32;2.60;;;;;;;15.20;54.52;101221.41;5071896;28;20119;-51
2023/01/23 08:31:53;;;;;;;5.55;2.60;;;;;;;15.19;54.50;101225.03;5071946;28;20048;-51
2023/01/23 08:34:23;;;;;;;4.43;2.70;;;;;;;15.16;54.55;101222.56;5072001;28;20123;-54
2023/01/23 08:36:53;;;;;;;5.07;2.50;;;;;;;15.17;54.62;101224.28;5071676;28;20485;-54
2023/01/23 08:39:24;;;;;;;5.25;3.15;;;;;;;15.16;54.59;101230.63;5071709;28;20557;-52
2023/01/23 08:41:52;;;;;;;4.72;2.63;;;;;;;15.14;54.39;101229.84;5071704;28;20546;-52
2023/01/23 08:44:20;;;;;;;4.22;2.40;;;;;;;15.13;54.35;101228.13;5070457;28;20485;-53
2023/01/23 08:46:53;;;;;;;4.95;2.63;;;;;;;15.12;54.44;101229.06;5071647;28;20055;-55
2023/01/23 08:49:23;;;;;;;4.53;3.00;;;;;;;15.09;54.45;101231.97;5070520;28;20045;-56
2023/01/23 08:51:52;;;;;;;3.67;2.25;;;;;;;15.07;54.32;101225.84;5071717;28;20504;-52
2023/01/23 08:54:20;;;;;;;3.97;2.45;;;;;;;15.07;54.26;101233.91;5071922;28;20091;-53
2023/01/23 08:56:48;;;;;;;4.00;2.70;;;;;;;15.04;54.26;101231.38;5071656;28;20048;-52
2023/01/23 08:59:16;;;;;;;4.82;2.83;;;;;;;15.01;54.40;101235.13;5071722;28;20056;-52
2023/01/23 09:01:46;;;;;;;4.35;2.42;;;;;;;15.00;54.41;101235.25;5071504;28;20048;-51
2023/01/23 09:04:17;;;;;;;4.13;2.40;;;;;;;14.98;54.32;101231.78;5071547;28;20095;-51
2023/01/23 09:06:47;;;;;;;4.43;2.80;;;;;;;14.97;54.56;101232.75;5071368;28;20560;-54
2023/01/23 09:09:15;;;;;;;4.38;2.53;;;;;;;14.94;54.43;101231.09;5071445;28;20473;-52
2023/01/23 09:11:45;;;;;;;4.53;2.72;;;;;;;14.95;54.48;101232.81;5071496;28;20485;-52
2023/01/23 09:14:13;;;;;;;4.18;2.67;;;;;;;14.94;54.51;101235.63;5071362;28;20049;-52
2023/01/23 09:16:42;;;;;;;4.28;2.50;;;;;;;14.91;54.55;101230.44;5071891;28;20087;-51
2023/01/23 09:19:11;;;;;;;4.75;2.97;;;;;;;14.85;54.64;101234.34;5071543;28;20044;-52
2023/01/23 09:21:39;;;;;;;4.43;2.60;;;;;;;14.87;54.53;101238.69;5071519;28;20106;-50
2023/01/23 09:24:09;;;;;;;4.05;2.50;;;;;;;14.87;54.54;101240.53;5070897;28;20048;-52
2023/01/23 09:26:37;;;;;;;4.85;2.90;;;;;;;14.86;54.64;101242.34;5071098;28;20102;-53
2023/01/23 09:29:06;;;;;;;5.10;2.60;;;;;;;14.84;54.47;101240.69;5070827;28;20045;-53
2023/01/23 09:31:35;;;;;;;5.47;3.17;;;;;;;14.83;54.47;101234.47;5071215;28;20153;-53
2023/01/23 09:34:04;;;;;;;4.38;2.90;;;;;;;14.82;54.59;101218.44;5072469;28;20094;-54
2023/01/23 09:36:32;;;;;;;4.55;2.90;;;;;;;14.81;54.55;101228.31;5075073;28;20094;-53
2023/01/23 09:39:12;;;;;;;4.80;2.50;;;;;;;14.81;54.59;101228.31;5074956;28;20044;-52
2023/01/23 09:41:41;;;;;;;5.07;2.80;;;;;;;14.78;54.90;101225.84;5074817;28;20048;-52
2023/01/23 09:44:15;;;;;;;4.78;2.75;;;;;;;14.78;54.60;101220.47;5074742;28;20687;-52
2023/01/23 09:46:48;;;;;;;5.28;2.63;;;;;;;14.76;54.64;101217.00;5074624;28;20041;-52
2023/01/23 09:49:23;;;;;;;5.22;2.80;;;;;;;14.77;54.46;101226.81;5074697;28;20044;-53
2023/01/23 09:51:56;;;;;;;4.85;2.80;;;;;;;14.76;54.57;101233.09;5074713;28;20048;-53
2023/01/23 09:54:37;;;;;;;6.03;3.20;;;;;;;14.77;54.47;101224.13;5074705;28;20123;-54
2023/01/23 09:57:13;;;;;;;4.53;2.35;;;;;;;14.78;54.44;101231.22;5074770;28;20448;-54
2023/01/23 09:59:47;;;;;;;5.93;2.80;;;;;;;14.80;54.32;101223.91;5074619;28;20044;-54
2023/01/23 10:02:28;;;;;;;7.00;3.10;;;;;;;14.81;54.55;101222.97;5074449;28;20098;-53
2023/01/23 10:04:58;;;;;;;5.22;3.03;;;;;;;14.84;54.58;101225.44;5074383;28;20390;-53
2023/01/23 10:07:49;;;;;;;4.80;3.00;;;;;;;14.91;54.80;101230.44;5074421;28;20168;-51
2023/01/23 10:10:38;;;;;;;5.28;2.85;;;;;;;15.00;55.28;101233.41;5074332;28;20041;-51
2023/01/23 10:13:11;;;;;;;5.50;2.70;;;;;;;15.09;55.30;101226.59;5074214;28;20070;-52
2023/01/23 10:16:05;;;;;;;4.40;2.60;;;;;;;15.18;55.24;101212.56;5074240;28;20097;-54
2023/01/23 10:18:40;;;;;;;4.50;2.58;;;;;;;15.28;54.85;101224.47;5074251;28;20055;-54
2023/01/23 10:21:19;;;;;;;4.53;2.65;;;;;;;15.29;54.08;101225.31;5074032;28;20044;-51
2023/01/23 10:23:57;;;;;;;5.75;2.92;;;;;;;15.31;53.88;101224.25;5073916;28;20045;-53
2023/01/23 10:26:32;;;;;;;4.88;2.70;;;;;;;15.30;53.92;101221.66;5074025;28;20407;-51
2023/01/23 10:29:10;;;;;;;5.13;2.90;;;;;;;15.33;53.88;101227.69;5073838;28;20057;-52
2023/01/23 10:31:43;;;;;;;4.30;2.63;;;;;;;15.39;54.06;101227.31;5073892;28;20655;-52
2023/01/23 10:34:14;;;;;;;;;;;;;;;15.46;54.04;101217.03;5074408;28;20076;-51
2023/01/23 10:36:48;;;;;;;5.70;3.17;;;;;;;15.51;53.59;101219.41;5074204;28;20258;-52
2023/01/23 10:39:27;;;;;;;7.53;3.25;;;;;;;15.57;53.51;101217.19;5073704;28;20401;-52
2023/01/23 10:41:57;;;;;;;5.30;2.92;;;;;;;15.63;53.53;101210.56;5073809;28;20040;-52
2023/01/23 10:44:30;;;;;;;5.03;2.63;;;;;;;15.68;53.54;101208.44;5073656;28;20052;-52
2023/01/23 10:47:03;;;;;;;5.10;2.83;;;;;;;15.71;53.46;101208.22;5073158;28;20102;-52
2023/01/23 10:49:32;;;;;;;;;;;;;;;15.72;53.62;101209.94;5074023;28;20575;-51
2023/01/23 10:52:00;;;;;;;4.15;2.40;;;;;;;15.73;53.51;101203.63;5073711;28;20015;-51
2023/01/23 10:54:29;;;;;;;4.93;2.70;;;;;;;15.76;53.60;101192.66;5073524;28;20048;-52
2023/01/23 10:57:03;;;;;;;4.10;2.60;;;;;;;15.74;53.57;101199.97;5073328;28;20045;-51
2023/01/23 10:59:37;;;;;;;3.58;2.38;;;;;;;15.73;53.64;101190.19;5073495;28;20048;-52
2023/01/23 11:02:20;;;;;;;4.38;2.50;;;;;;;15.68;53.67;101195.00;5073468;28;20409;-51
2023/01/23 11:04:51;;;;;;;4.10;2.45;;;;;;;15.64;53.70;101196.16;5073259;28;20467;-52
2023/01/23 11:07:22;;;;;;;4.53;2.60;;;;;;;15.64;53.93;101194.34;5071843;28;20067;-52
2023/01/23 11:09:54;;;;;;;5.70;2.80;;;;;;;15.66;54.07;101188.84;5073247;28;20040;-52
2023/01/23 11:12:26;;;;;;;5.97;2.65;;;;;;;15.67;54.02;101187.88;5073131;28;20410;-52
2023/01/23 11:15:13;;;;;;;5.07;2.65;;;;;;;15.73;54.23;101182.97;5072863;28;20079;-52
2023/01/23 11:17:45;;;;;;;4.07;2.55;;;;;;;15.77;54.23;101183.63;5072925;28;20127;-51
2023/01/23 11:20:24;;;;;;;4.88;2.58;;;;;;;15.82;54.20;101178.78;5072851;28;20094;-52
2023/01/23 11:23:05;;;;;;;4.93;2.60;;;;;;;15.85;54.13;101178.59;5072907;28;20097;-50
2023/01/23 11:25:37;;;;;;;4.60;2.72;;;;;;;15.86;54.19;101183.00;5072793;28;20045;-51
2023/01/23 11:28:22;;;;;;;4.22;2.58;;;;;;;15.89;54.18;101172.03;5072620;28;20060;-52
2023/01/23 11:30:54;;;;;;;4.40;2.50;;;;;;;15.96;54.06;101172.47;5072725;28;20484;-51
2023/01/23 11:33:46;;;;;;;4.60;2.63;;;;;;;15.98;54.21;101165.16;5072644;28;20056;-52
2023/01/23 11:36:36;;;;;;;4.03;2.75;;;;;;;15.99;54.25;101162.34;5072612;28;20044;-51
2023/01/23 11:39:21;;;;;;;5.00;2.58;;;;;;;16.08;54.16;101176.16;5072705;28;20098;-51
2023/01/23 11:41:49;;;;;;;4.70;2.50;;;;;;;16.09;54.19;101162.59;5072542;28;20124;-51
2023/01/23 11:44:22;;;;;;;4.20;2.63;;;;;;;16.10;54.38;101166.13;5072432;28;20048;-53
2023/01/23 11:47:15;;;;;;;4.15;2.47;;;;;;;16.14;54.29;101154.22;5072367;28;20056;-52
2023/01/23 11:50:00;;;;;;;4.55;2.65;;;;;;;16.18;54.30;101155.72;5072445;28;20489;-51